sensor_id;sensor_type;location;lat;lon;timestamp;temperature;humidity
8736;DHT22;4404;49.308;12.178;2023-04-06T08:07:52;3.80;98.20
8736;DHT22;4404;49.308;12.178;2023-04-06T08:13:55;4.50;98.90
8736;DHT22;4404;49.308;12.178;2023-04-06T08:19:57;5.30;96.80
8736;DHT22;4404;49.308;12.178;2023-04-06T08:26:01;5.90;94.00
8736;DHT22;4404;49.308;12.178;2023-04-06T08:32:05;6.40;92.50
8736;DHT22;4404;49.308;12.178;2023-04-06T08:38:07;6.80;91.10
8736;DHT22;4404;49.308;12.178;2023-04-06T08:44:11;7.50;83.40
8736;DHT22;4404;49.308;12.178;2023-04-06T08:50:14;7.80;84.00
8736;DHT22;4404;49.308;12.178;2023-04-06T08:56:18;8.30;79.00
8736;DHT22;4404;49.308;12.178;2023-04-06T09:02:22;8.20;78.40
8736;DHT22;4404;49.308;12.178;2023-04-06T09:08:25;8.60;75.00
8736;DHT22;4404;49.308;12.178;2023-04-06T09:20:39;9.20;72.10
8736;DHT22;4404;49.308;12.178;2023-04-06T09:26:45;9.30;71.10
8736;DHT22;4404;49.308;12.178;2023-04-06T09:32:49;9.20;71.50
8736;DHT22;4404;49.308;12.178;2023-04-06T09:38:55;9.40;70.80
8736;DHT22;4404;49.308;12.178;2023-04-06T09:44:57;9.80;67.20
8736;DHT22;4404;49.308;12.178;2023-04-06T09:51:05;10.30;57.50
8736;DHT22;4404;49.308;12.178;2023-04-06T09:57:19;10.20;58.20
8736;DHT22;4404;49.308;12.178;2023-04-06T10:03:33;10.50;55.50
8736;DHT22;4404;49.308;12.178;2023-04-06T10:09:39;11.00;57.70
8736;DHT22;4404;49.308;12.178;2023-04-06T10:15:43;11.10;58.40
8736;DHT22;4404;49.308;12.178;2023-04-06T10:21:48;11.00;54.90
8736;DHT22;4404;49.308;12.178;2023-04-06T10:27:59;10.90;53.30
8736;DHT22;4404;49.308;12.178;2023-04-06T10:34:11;10.90;54.10
8736;DHT22;4404;49.308;12.178;2023-04-06T10:40:23;11.00;53.50
8736;DHT22;4404;49.308;12.178;2023-04-06T10:46:28;11.20;54.00
8736;DHT22;4404;49.308;12.178;2023-04-06T10:52:34;11.50;54.70
8736;DHT22;4404;49.308;12.178;2023-04-06T10:58:36;11.80;54.90
8736;DHT22;4404;49.308;12.178;2023-04-06T11:04:39;11.90;52.00
8736;DHT22;4404;49.308;12.178;2023-04-06T11:10:46;11.40;51.30
8736;DHT22;4404;49.308;12.178;2023-04-06T11:16:50;11.50;52.10
8736;DHT22;4404;49.308;12.178;2023-04-06T11:22:53;11.30;51.30
8736;DHT22;4404;49.308;12.178;2023-04-06T11:28:57;10.80;51.50
8736;DHT22;4404;49.308;12.178;2023-04-06T11:34:59;11.70;52.00
8736;DHT22;4404;49.308;12.178;2023-04-06T11:41:02;11.70;52.90
8736;DHT22;4404;49.308;12.178;2023-04-06T11:47:08;12.00;50.20
8736;DHT22;4404;49.308;12.178;2023-04-06T11:53:11;12.00;50.80
8736;DHT22;4404;49.308;12.178;2023-04-06T11:59:14;11.60;51.30
8736;DHT22;4404;49.308;12.178;2023-04-06T12:05:18;11.90;55.30
8736;DHT22;4404;49.308;12.178;2023-04-06T12:11:20;11.90;55.80
8736;DHT22;4404;49.308;12.178;2023-04-06T12:17:25;12.40;52.90
8736;DHT22;4404;49.308;12.178;2023-04-06T12:23:28;12.70;49.50
8736;DHT22;4404;49.308;12.178;2023-04-06T12:29:31;12.40;49.30
8736;DHT22;4404;49.308;12.178;2023-04-06T12:35:34;12.40;51.00
8736;DHT22;4404;49.308;12.178;2023-04-06T12:41:38;12.50;49.20
8736;DHT22;4404;49.308;12.178;2023-04-06T12:47:41;12.20;49.30
8736;DHT22;4404;49.308;12.178;2023-04-06T12:53:44;11.90;49.90
8736;DHT22;4404;49.308;12.178;2023-04-06T12:59:48;12.00;51.80
8736;DHT22;4404;49.308;12.178;2023-04-06T13:05:50;12.00;51.00
8736;DHT22;4404;49.308;12.178;2023-04-06T13:11:53;11.70;50.70
8736;DHT22;4404;49.308;12.178;2023-04-06T13:17:57;11.80;49.10
8736;DHT22;4404;49.308;12.178;2023-04-06T13:24:00;12.00;51.30
8736;DHT22;4404;49.308;12.178;2023-04-06T13:30:03;12.40;52.20
8736;DHT22;4404;49.308;12.178;2023-04-06T13:36:11;13.00;54.00
8736;DHT22;4404;49.308;12.178;2023-04-06T13:42:26;13.10;52.20
8736;DHT22;4404;49.308;12.178;2023-04-06T13:48:31;13.30;50.70
8736;DHT22;4404;49.308;12.178;2023-04-06T13:54:37;13.30;48.10
8736;DHT22;4404;49.308;12.178;2023-04-06T14:00:40;13.20;48.20
8736;DHT22;4404;49.308;12.178;2023-04-06T14:06:44;13.10;49.80
8736;DHT22;4404;49.308;12.178;2023-04-06T14:12:49;13.40;48.70
8736;DHT22;4404;49.308;12.178;2023-04-06T14:18:53;13.40;48.60
8736;DHT22;4404;49.308;12.178;2023-04-06T14:24:55;13.30;49.20
8736;DHT22;4404;49.308;12.178;2023-04-06T14:31:08;13.30;47.40
8736;DHT22;4404;49.308;12.178;2023-04-06T14:37:13;13.30;48.10
8736;DHT22;4404;49.308;12.178;2023-04-06T14:43:15;13.60;48.30
8736;DHT22;4404;49.308;12.178;2023-04-06T14:49:19;13.80;48.20
8736;DHT22;4404;49.308;12.178;2023-04-06T14:55:22;13.60;45.70
8736;DHT22;4404;49.308;12.178;2023-04-06T15:01:24;13.70;49.10
8736;DHT22;4404;49.308;12.178;2023-04-06T15:07:32;13.60;47.40
8736;DHT22;4404;49.308;12.178;2023-04-06T15:13:37;13.70;48.40
8736;DHT22;4404;49.308;12.178;2023-04-06T15:19:40;13.30;45.00
8736;DHT22;4404;49.308;12.178;2023-04-06T15:25:44;13.10;45.00
8736;DHT22;4404;49.308;12.178;2023-04-06T15:31:46;13.50;44.70
8736;DHT22;4404;49.308;12.178;2023-04-06T15:37:49;13.90;44.00
8736;DHT22;4404;49.308;12.178;2023-04-06T15:43:53;13.70;43.50
8736;DHT22;4404;49.308;12.178;2023-04-06T15:49:55;13.60;43.70
8736;DHT22;4404;49.308;12.178;2023-04-06T15:55:59;13.40;44.00
8736;DHT22;4404;49.308;12.178;2023-04-06T16:02:04;13.40;43.40
8736;DHT22;4404;49.308;12.178;2023-04-06T16:08:12;13.20;45.50
8736;DHT22;4404;49.308;12.178;2023-04-06T16:14:16;13.40;45.00
8736;DHT22;4404;49.308;12.178;2023-04-06T16:20:23;13.50;43.10
8736;DHT22;4404;49.308;12.178;2023-04-06T16:26:28;13.30;45.20
8736;DHT22;4404;49.308;12.178;2023-04-06T16:32:34;12.90;44.10
8736;DHT22;4404;49.308;12.178;2023-04-06T16:38:38;12.50;44.60
8736;DHT22;4404;49.308;12.178;2023-04-06T16:44:42;12.50;44.40
8736;DHT22;4404;49.308;12.178;2023-04-06T16:50:45;12.30;45.30
8736;DHT22;4404;49.308;12.178;2023-04-06T16:56:49;12.10;45.20
